sensor_id;sensor_type;location;lat;lon;timestamp;pressure;altitude;pressure_sealevel;temperature;humidity
38197;BME280;26543;51.976;4.616;2023-06-22T00:01:14;52439.56;;;-140.72;100.00
38197;BME280;26543;51.976;4.616;2023-06-22T00:03:39;52455.78;;;-140.72;100.00
38197;BME280;26543;51.976;4.616;2023-06-22T00:06:04;52451.72;;;-140.72;100.00
38197;BME280;26543;51.976;4.616;2023-06-22T00:08:30;52453.75;;;-140.72;100.00
38197;BME280;26543;51.976;4.616;2023-06-22T00:10:55;52427.38;;;-140.72;100.00
38197;BME280;26543;51.976;4.616;2023-06-22T00:13:21;52459.84;;;-140.72;100.00
38197;BME280;26543;51.976;4.616;2023-06-22T00:15:46;52421.28;;;-140.72;100.00
38197;BME280;26543;51.976;4.616;2023-06-22T00:18:12;52455.78;;;-140.72;100.00
38197;BME280;26543;51.976;4.616;2023-06-22T00:20:38;52480.16;;;-140.72;100.00
38197;BME280;26543;51.976;4.616;2023-06-22T00:23:05;52455.78;;;-140.72;100.00
38197;BME280;26543;51.976;4.616;2023-06-22T00:25:42;52470.00;;;-140.72;100.00
38197;BME280;26543;51.976;4.616;2023-06-22T00:28:07;52449.72;;;-140.72;100.00
38197;BME280;26543;51.976;4.616;2023-06-22T00:30:35;52435.50;;;-140.72;100.00
38197;BME280;26543;51.976;4.616;2023-06-22T00:33:01;52496.38;;;-140.72;100.00
38197;BME280;26543;51.976;4.616;2023-06-22T00:35:27;52480.16;;;-140.72;100.00
38197;BME280;26543;51.976;4.616;2023-06-22T00:37:57;52433.47;;;-140.72;100.00
38197;BME280;26543;51.976;4.616;2023-06-22T00:40:26;52459.84;;;-140.72;100.00
38197;BME280;26543;51.976;4.616;2023-06-22T00:42:51;52478.13;;;-140.72;100.00
38197;BME280;26543;51.976;4.616;2023-06-22T00:45:17;52484.19;;;-140.72;100.00
38197;BME280;26543;51.976;4.616;2023-06-22T00:47:42;52476.09;;;-140.72;100.00
38197;BME280;26543;51.976;4.616;2023-06-22T00:50:08;52447.69;;;-140.72;100.00
38197;BME280;26543;51.976;4.616;2023-06-22T00:52:38;52480.16;;;-140.72;100.00
38197;BME280;26543;51.976;4.616;2023-06-22T00:55:08;52476.09;;;-140.72;100.00
38197;BME280;26543;51.976;4.616;2023-06-22T00:57:33;52403.03;;;-140.72;100.00
38197;BME280;26543;51.976;4.616;2023-06-22T01:00:02;52467.97;;;-140.72;100.00
38197;BME280;26543;51.976;4.616;2023-06-22T01:02:30;52498.41;;;-140.72;100.00
38197;BME280;26543;51.976;4.616;2023-06-22T01:04:56;52435.50;;;-140.72;100.00
38197;BME280;26543;51.976;4.616;2023-06-22T01:12:23;52435.50;;;-140.72;100.00
38197;BME280;26543;51.976;4.616;2023-06-22T01:14:58;52480.16;;;-140.72;100.00
38197;BME280;26543;51.976;4.616;2023-06-22T01:17:27;52516.66;;;-140.72;100.00
38197;BME280;26543;51.976;4.616;2023-06-22T01:19:54;52482.16;;;-140.72;100.00
38197;BME280;26543;51.976;4.616;2023-06-22T01:22:21;52463.91;;;-140.72;100.00
38197;BME280;26543;51.976;4.616;2023-06-22T01:24:51;52490.28;;;-140.72;100.00
38197;BME280;26543;51.976;4.616;2023-06-22T01:29:55;52482.16;;;-140.72;100.00
38197;BME280;26543;51.976;4.616;2023-06-22T01:32:25;52445.66;;;-140.72;100.00
38197;BME280;26543;51.976;4.616;2023-06-22T01:34:52;52439.56;;;-140.72;100.00
38197;BME280;26543;51.976;4.616;2023-06-22T01:37:17;52463.91;;;-140.72;100.00
38197;BME280;26543;51.976;4.616;2023-06-22T01:39:43;52510.59;;;-140.72;100.00
38197;BME280;26543;51.976;4.616;2023-06-22T01:42:09;52502.47;;;-140.72;100.00
38197;BME280;26543;51.976;4.616;2023-06-22T01:44:35;52504.50;;;-140.72;100.00
38197;BME280;26543;51.976;4.616;2023-06-22T01:47:03;52472.03;;;-140.72;100.00
38197;BME280;26543;51.976;4.616;2023-06-22T01:49:29;52506.53;;;-140.72;100.00
38197;BME280;26543;51.976;4.616;2023-06-22T01:51:55;52500.44;;;-140.72;100.00
38197;BME280;26543;51.976;4.616;2023-06-22T01:54:20;52516.66;;;-140.72;100.00
38197;BME280;26543;51.976;4.616;2023-06-22T01:56:45;52512.59;;;-140.72;100.00
38197;BME280;26543;51.976;4.616;2023-06-22T02:01:54;52516.66;;;-140.72;100.00
38197;BME280;26543;51.976;4.616;2023-06-22T02:04:32;52506.53;;;-140.72;100.00
38197;BME280;26543;51.976;4.616;2023-06-22T02:06:59;52498.41;;;-140.72;100.00
38197;BME280;26543;51.976;4.616;2023-06-22T02:09:25;52500.44;;;-140.72;100.00
38197;BME280;26543;51.976;4.616;2023-06-22T02:11:53;52498.41;;;-140.72;100.00
38197;BME280;26543;51.976;4.616;2023-06-22T02:14:21;52494.34;;;-140.72;100.00
38197;BME280;26543;51.976;4.616;2023-06-22T02:16:46;52543.03;;;-140.72;100.00
38197;BME280;26543;51.976;4.616;2023-06-22T02:19:12;52532.91;;;-140.72;100.00
38197;BME280;26543;51.976;4.616;2023-06-22T02:21:37;52492.31;;;-140.72;100.00
38197;BME280;26543;51.976;4.616;2023-06-22T02:24:03;52492.31;;;-140.72;100.00
38197;BME280;26543;51.976;4.616;2023-06-22T02:26:28;52500.44;;;-140.72;100.00
38197;BME280;26543;51.976;4.616;2023-06-22T02:28:54;52492.31;;;-140.72;100.00
38197;BME280;26543;51.976;4.616;2023-06-22T02:31:19;52512.59;;;-140.72;100.00
38197;BME280;26543;51.976;4.616;2023-06-22T02:33:45;52510.59;;;-140.72;100.00
38197;BME280;26543;51.976;4.616;2023-06-22T02:36:10;52500.44;;;-140.72;100.00
38197;BME280;26543;51.976;4.616;2023-06-22T02:38:38;52494.34;;;-140.72;100.00
38197;BME280;26543;51.976;4.616;2023-06-22T02:41:04;52451.72;;;-140.72;100.00
38197;BME280;26543;51.976;4.616;2023-06-22T02:43:29;52532.91;;;-140.72;100.00
38197;BME280;26543;51.976;4.616;2023-06-22T02:45:55;52492.31;;;-140.72;100.00
38197;BME280;26543;51.976;4.616;2023-06-22T02:48:20;52480.16;;;-140.72;100.00
38197;BME280;26543;51.976;4.616;2023-06-22T02:50:45;52528.84;;;-140.72;100.00
38197;BME280;26543;51.976;4.616;2023-06-22T02:53:10;52510.59;;;-140.72;100.00
38197;BME280;26543;51.976;4.616;2023-06-22T02:55:36;52534.94;;;-140.72;100.00
38197;BME280;26543;51.976;4.616;2023-06-22T02:58:01;52476.09;;;-140.72;100.00
38197;BME280;26543;51.976;4.616;2023-06-22T03:00:29;52500.44;;;-140.72;100.00
38197;BME280;26543;51.976;4.616;2023-06-22T03:02:55;52532.91;;;-140.72;100.00
38197;BME280;26543;51.976;4.616;2023-06-22T03:05:21;52522.75;;;-140.72;100.00
38197;BME280;26543;51.976;4.616;2023-06-22T03:07:46;52536.97;;;-140.72;100.00
38197;BME280;26543;51.976;4.616;2023-06-22T03:10:11;52510.59;;;-140.72;100.00
38197;BME280;26543;51.976;4.616;2023-06-22T03:12:38;52534.94;;;-140.72;100.00
38197;BME280;26543;51.976;4.616;2023-06-22T03:15:07;52516.66;;;-140.72;100.00
38197;BME280;26543;51.976;4.616;2023-06-22T03:17:33;52504.50;;;-140.72;100.00
38197;BME280;26543;51.976;4.616;2023-06-22T03:19:58;52549.13;;;-140.72;100.00
38197;BME280;26543;51.976;4.616;2023-06-22T03:22:24;52492.31;;;-140.72;100.00
38197;BME280;26543;51.976;4.616;2023-06-22T03:24:49;52541.03;;;-140.72;100.00
38197;BME280;26543;51.976;4.616;2023-06-22T03:27:14;52536.97;;;-140.72;100.00
38197;BME280;26543;51.976;4.616;2023-06-22T03:29:39;52547.09;;;-140.72;100.00
38197;BME280;26543;51.976;4.616;2023-06-22T03:32:05;52549.13;;;-140.72;100.00
38197;BME280;26543;51.976;4.616;2023-06-22T03:34:31;52514.63;;;-140.72;100.00
38197;BME280;26543;51.976;4.616;2023-06-22T03:36:58;52524.78;;;-140.72;100.00
38197;BME280;26543;51.976;4.616;2023-06-22T03:39:23;52532.91;;;-140.72;100.00
38197;BME280;26543;51.976;4.616;2023-06-22T03:41:48;52516.66;;;-140.72;100.00
38197;BME280;26543;51.976;4.616;2023-06-22T03:44:14;52541.03;;;-140.72;100.00
38197;BME280;26543;51.976;4.616;2023-06-22T03:46:39;52504.50;;;-140.72;100.00
38197;BME280;26543;51.976;4.616;2023-06-22T03:49:04;52512.59;;;-140.72;100.00
38197;BME280;26543;51.976;4.616;2023-06-22T03:51:30;52504.50;;;-140.72;100.00
38197;BME280;26543;51.976;4.616;2023-06-22T03:53:55;52512.59;;;-140.72;100.00
38197;BME280;26543;51.976;4.616;2023-06-22T03:56:21;52555.22;;;-140.72;100.00
38197;BME280;26543;51.976;4.616;2023-06-22T03:58:46;52528.84;;;-140.72;100.00
38197;BME280;26543;51.976;4.616;2023-06-22T04:01:12;52506.53;;;-140.72;100.00
38197;BME280;26543;51.976;4.616;2023-06-22T04:03:51;52498.41;;;-140.72;100.00
38197;BME280;26543;51.976;4.616;2023-06-22T04:06:17;52514.63;;;-140.72;100.00
38197;BME280;26543;51.976;4.616;2023-06-22T04:08:42;52508.56;;;-140.72;100.00
38197;BME280;26543;51.976;4.616;2023-06-22T04:11:13;52514.63;;;-140.72;100.00
38197;BME280;26543;51.976;4.616;2023-06-22T04:13:38;52557.25;;;-140.72;100.00
38197;BME280;26543;51.976;4.616;2023-06-22T04:16:10;52492.31;;;-140.72;100.00
38197;BME280;26543;51.976;4.616;2023-06-22T04:18:35;52502.47;;;-140.72;100.00
38197;BME280;26543;51.976;4.616;2023-06-22T04:21:01;52486.22;;;-140.72;100.00
38197;BME280;26543;51.976;4.616;2023-06-22T04:23:26;52530.88;;;-140.72;100.00
38197;BME280;26543;51.976;4.616;2023-06-22T04:25:51;52498.41;;;-140.72;100.00
38197;BME280;26543;51.976;4.616;2023-06-22T04:28:17;52490.28;;;-140.72;100.00
38197;BME280;26543;51.976;4.616;2023-06-22T04:30:42;52512.59;;;-140.72;100.00
38197;BME280;26543;51.976;4.616;2023-06-22T04:33:14;52518.69;;;-140.72;100.00
38197;BME280;26543;51.976;4.616;2023-06-22T04:35:40;52500.44;;;-140.72;100.00
38197;BME280;26543;51.976;4.616;2023-06-22T04:38:08;52496.38;;;-140.72;100.00
38197;BME280;26543;51.976;4.616;2023-06-22T04:40:34;52508.56;;;-140.72;100.00
38197;BME280;26543;51.976;4.616;2023-06-22T04:42:59;52504.50;;;-140.72;100.00
38197;BME280;26543;51.976;4.616;2023-06-22T04:45:27;52467.97;;;-140.72;100.00
38197;BME280;26543;51.976;4.616;2023-06-22T04:47:53;52488.25;;;-140.72;100.00
38197;BME280;26543;51.976;4.616;2023-06-22T04:53:19;52522.75;;;-140.72;100.00
38197;BME280;26543;51.976;4.616;2023-06-22T04:55:45;52484.19;;;-140.72;100.00
38197;BME280;26543;51.976;4.616;2023-06-22T04:58:10;52486.22;;;-140.72;100.00
38197;BME280;26543;51.976;4.616;2023-06-22T05:00:37;52449.72;;;-140.72;100.00
38197;BME280;26543;51.976;4.616;2023-06-22T05:03:03;52500.44;;;-140.72;100.00
38197;BME280;26543;51.976;4.616;2023-06-22T05:05:31;52472.03;;;-140.72;100.00
38197;BME280;26543;51.976;4.616;2023-06-22T05:07:57;52480.16;;;-140.72;100.00
38197;BME280;26543;51.976;4.616;2023-06-22T05:10:25;52474.06;;;-140.72;100.00
38197;BME280;26543;51.976;4.616;2023-06-22T05:12:54;52498.41;;;-140.72;100.00
38197;BME280;26543;51.976;4.616;2023-06-22T05:15:19;52490.28;;;-140.72;100.00
38197;BME280;26543;51.976;4.616;2023-06-22T05:17:44;52472.03;;;-140.72;100.00
38197;BME280;26543;51.976;4.616;2023-06-22T05:20:26;52484.19;;;-140.72;100.00
38197;BME280;26543;51.976;4.616;2023-06-22T05:22:51;52496.38;;;-140.72;100.00
38197;BME280;26543;51.976;4.616;2023-06-22T05:25:16;52478.13;;;-140.72;100.00
38197;BME280;26543;51.976;4.616;2023-06-22T05:27:41;52455.78;;;-140.72;100.00
38197;BME280;26543;51.976;4.616;2023-06-22T05:30:11;52447.69;;;-140.72;100.00
38197;BME280;26543;51.976;4.616;2023-06-22T05:32:36;52451.72;;;-140.72;100.00
38197;BME280;26543;51.976;4.616;2023-06-22T05:35:02;52407.09;;;-140.72;100.00
38197;BME280;26543;51.976;4.616;2023-06-22T05:37:28;52453.75;;;-140.72;100.00
38197;BME280;26543;51.976;4.616;2023-06-22T05:39:53;52490.28;;;-140.72;100.00
38197;BME280;26543;51.976;4.616;2023-06-22T05:42:20;52461.88;;;-140.72;100.00
38197;BME280;26543;51.976;4.616;2023-06-22T05:44:45;52429.41;;;-140.72;100.00
38197;BME280;26543;51.976;4.616;2023-06-22T05:47:12;52463.91;;;-140.72;100.00
38197;BME280;26543;51.976;4.616;2023-06-22T05:49:37;52457.81;;;-140.72;100.00
38197;BME280;26543;51.976;4.616;2023-06-22T05:52:02;52423.31;;;-140.72;100.00
38197;BME280;26543;51.976;4.616;2023-06-22T05:54:29;52439.56;;;-140.72;100.00
38197;BME280;26543;51.976;4.616;2023-06-22T05:56:55;52435.50;;;-140.72;100.00
38197;BME280;26543;51.976;4.616;2023-06-22T05:59:20;52435.50;;;-140.72;100.00
38197;BME280;26543;51.976;4.616;2023-06-22T06:01:45;52405.06;;;-140.72;100.00
38197;BME280;26543;51.976;4.616;2023-06-22T06:04:14;52392.88;;;-140.72;100.00
38197;BME280;26543;51.976;4.616;2023-06-22T06:06:40;52390.84;;;-140.72;100.00
38197;BME280;26543;51.976;4.616;2023-06-22T06:09:05;52392.88;;;-140.72;100.00
38197;BME280;26543;51.976;4.616;2023-06-22T06:11:30;52398.97;;;-140.72;100.00
38197;BME280;26543;51.976;4.616;2023-06-22T06:13:56;52407.09;;;-140.72;100.00
38197;BME280;26543;51.976;4.616;2023-06-22T06:16:21;52384.78;;;-140.72;100.00
38197;BME280;26543;51.976;4.616;2023-06-22T06:18:47;52437.53;;;-140.72;100.00
38197;BME280;26543;51.976;4.616;2023-06-22T06:21:14;52396.94;;;-140.72;100.00
38197;BME280;26543;51.976;4.616;2023-06-22T06:23:39;52398.97;;;-140.72;100.00
38197;BME280;26543;51.976;4.616;2023-06-22T06:26:05;52398.97;;;-140.72;100.00
38197;BME280;26543;51.976;4.616;2023-06-22T06:28:31;52405.06;;;-140.72;100.00
38197;BME280;26543;51.976;4.616;2023-06-22T06:30:57;52352.31;;;-140.72;100.00
38197;BME280;26543;51.976;4.616;2023-06-22T06:33:22;52368.53;;;-140.72;100.00
38197;BME280;26543;51.976;4.616;2023-06-22T06:35:47;52374.63;;;-140.72;100.00
38197;BME280;26543;51.976;4.616;2023-06-22T06:38:12;52374.63;;;-140.72;100.00
38197;BME280;26543;51.976;4.616;2023-06-22T06:40:38;52398.97;;;-140.72;100.00
38197;BME280;26543;51.976;4.616;2023-06-22T06:43:03;52354.34;;;-140.72;100.00
38197;BME280;26543;51.976;4.616;2023-06-22T06:45:28;52348.25;;;-140.72;100.00
38197;BME280;26543;51.976;4.616;2023-06-22T06:47:56;52366.50;;;-140.72;100.00
38197;BME280;26543;51.976;4.616;2023-06-22T06:50:21;52374.63;;;-140.72;100.00
38197;BME280;26543;51.976;4.616;2023-06-22T06:52:46;52374.63;;;-140.72;100.00
38197;BME280;26543;51.976;4.616;2023-06-22T06:55:12;52342.16;;;-140.72;100.00
38197;BME280;26543;51.976;4.616;2023-06-22T06:57:38;52366.50;;;-140.72;100.00
38197;BME280;26543;51.976;4.616;2023-06-22T07:00:04;52392.88;;;-140.72;100.00
38197;BME280;26543;51.976;4.616;2023-06-22T07:02:34;52384.78;;;-140.72;100.00
38197;BME280;26543;51.976;4.616;2023-06-22T07:04:59;52336.06;;;-140.72;100.00
38197;BME280;26543;51.976;4.616;2023-06-22T07:07:25;52348.25;;;-140.72;100.00
38197;BME280;26543;51.976;4.616;2023-06-22T07:09:50;52346.22;;;-140.72;100.00
38197;BME280;26543;51.976;4.616;2023-06-22T07:12:15;52346.22;;;-140.72;100.00
38197;BME280;26543;51.976;4.616;2023-06-22T07:14:41;52358.41;;;-140.72;100.00
38197;BME280;26543;51.976;4.616;2023-06-22T07:17:06;52327.97;;;-140.72;100.00
38197;BME280;26543;51.976;4.616;2023-06-22T07:19:32;52305.63;;;-140.72;100.00
38197;BME280;26543;51.976;4.616;2023-06-22T07:21:58;52305.63;;;-140.72;100.00
38197;BME280;26543;51.976;4.616;2023-06-22T07:24:23;52293.47;;;-140.72;100.00
38197;BME280;26543;51.976;4.616;2023-06-22T07:26:49;52313.75;;;-140.72;100.00
38197;BME280;26543;51.976;4.616;2023-06-22T07:29:16;52301.59;;;-140.72;100.00
38197;BME280;26543;51.976;4.616;2023-06-22T07:31:41;52287.38;;;-140.72;100.00
38197;BME280;26543;51.976;4.616;2023-06-22T07:34:07;52283.31;;;-140.72;100.00
38197;BME280;26543;51.976;4.616;2023-06-22T07:36:32;52273.19;;;-140.72;100.00
38197;BME280;26543;51.976;4.616;2023-06-22T07:38:57;52277.22;;;-140.72;100.00
38197;BME280;26543;51.976;4.616;2023-06-22T07:41:22;52303.59;;;-140.72;100.00
38197;BME280;26543;51.976;4.616;2023-06-22T07:43:48;52315.78;;;-140.72;100.00
38197;BME280;26543;51.976;4.616;2023-06-22T07:46:13;52281.28;;;-140.72;100.00
38197;BME280;26543;51.976;4.616;2023-06-22T07:48:38;52277.22;;;-140.72;100.00
38197;BME280;26543;51.976;4.616;2023-06-22T07:51:04;52252.88;;;-140.72;100.00
38197;BME280;26543;51.976;4.616;2023-06-22T07:53:30;52271.16;;;-140.72;100.00
38197;BME280;26543;51.976;4.616;2023-06-22T07:55:56;52273.19;;;-140.72;100.00
38197;BME280;26543;51.976;4.616;2023-06-22T07:58:21;52273.19;;;-140.72;100.00
38197;BME280;26543;51.976;4.616;2023-06-22T08:00:46;52244.78;;;-140.72;100.00
38197;BME280;26543;51.976;4.616;2023-06-22T08:03:11;52267.09;;;-140.72;100.00
38197;BME280;26543;51.976;4.616;2023-06-22T08:05:37;52256.94;;;-140.72;100.00
38197;BME280;26543;51.976;4.616;2023-06-22T08:08:02;52210.28;;;-140.72;100.00
38197;BME280;26543;51.976;4.616;2023-06-22T08:10:27;52230.56;;;-140.72;100.00
38197;BME280;26543;51.976;4.616;2023-06-22T08:12:52;52212.31;;;-140.72;100.00
38197;BME280;26543;51.976;4.616;2023-06-22T08:15:18;52208.25;;;-140.72;100.00
38197;BME280;26543;51.976;4.616;2023-06-22T08:17:44;52198.09;;;-140.72;100.00
38197;BME280;26543;51.976;4.616;2023-06-22T08:20:09;52179.84;;;-140.72;100.00
38197;BME280;26543;51.976;4.616;2023-06-22T08:22:36;52220.41;;;-140.72;100.00
38197;BME280;26543;51.976;4.616;2023-06-22T08:25:02;52179.84;;;-140.72;100.00
38197;BME280;26543;51.976;4.616;2023-06-22T08:27:28;52173.75;;;-140.72;100.00
38197;BME280;26543;51.976;4.616;2023-06-22T08:29:54;52129.13;;;-140.72;100.00
38197;BME280;26543;51.976;4.616;2023-06-22T08:32:23;52145.34;;;-140.72;100.00
38197;BME280;26543;51.976;4.616;2023-06-22T08:34:49;52143.31;;;-140.72;86.63
38197;BME280;26543;51.976;4.616;2023-06-22T08:37:14;52135.19;;;-140.72;100.00
38197;BME280;26543;51.976;4.616;2023-06-22T08:39:39;52175.78;;;-140.72;94.84
38197;BME280;26543;51.976;4.616;2023-06-22T08:42:06;52155.50;;;-140.72;74.77
38197;BME280;26543;51.976;4.616;2023-06-22T08:44:31;52098.69;;;-140.72;70.23
38197;BME280;26543;51.976;4.616;2023-06-22T08:46:57;52114.91;;;-140.72;46.21
38197;BME280;26543;51.976;4.616;2023-06-22T08:49:22;52104.75;;;-140.72;14.26
38197;BME280;26543;51.976;4.616;2023-06-22T08:51:47;52133.16;;;-140.72;6.06
38197;BME280;26543;51.976;4.616;2023-06-22T08:54:14;52108.81;;;-140.72;0.00
38197;BME280;26543;51.976;4.616;2023-06-22T08:56:39;52118.97;;;-140.72;0.00
38197;BME280;26543;51.976;4.616;2023-06-22T08:59:05;52135.19;;;-140.72;0.00
38197;BME280;26543;51.976;4.616;2023-06-22T09:01:33;52125.06;;;-140.72;0.00
38197;BME280;26543;51.976;4.616;2023-06-22T09:03:58;52135.19;;;-140.72;0.00
38197;BME280;26543;51.976;4.616;2023-06-22T09:06:24;52102.75;;;-140.72;0.00
38197;BME280;26543;51.976;4.616;2023-06-22T09:08:50;52108.81;;;-140.72;0.00
38197;BME280;26543;51.976;4.616;2023-06-22T09:11:15;52108.81;;;-140.72;0.00
38197;BME280;26543;51.976;4.616;2023-06-22T09:13:40;52123.03;;;-140.72;0.00
38197;BME280;26543;51.976;4.616;2023-06-22T09:16:05;52078.38;;;-140.72;0.00
38197;BME280;26543;51.976;4.616;2023-06-22T09:18:31;52086.50;;;-140.72;0.00
38197;BME280;26543;51.976;4.616;2023-06-22T09:20:56;52092.59;;;-140.72;0.00
38197;BME280;26543;51.976;4.616;2023-06-22T09:23:22;52070.28;;;-140.72;0.00
38197;BME280;26543;51.976;4.616;2023-06-22T09:25:47;52104.75;;;-140.72;0.00
38197;BME280;26543;51.976;4.616;2023-06-22T09:28:13;52086.50;;;-140.72;0.00
38197;BME280;26543;51.976;4.616;2023-06-22T09:30:40;52118.97;;;-140.72;0.00
38197;BME280;26543;51.976;4.616;2023-06-22T09:33:05;52102.75;;;-140.72;0.00
38197;BME280;26543;51.976;4.616;2023-06-22T09:35:31;52086.50;;;-140.72;0.00
38197;BME280;26543;51.976;4.616;2023-06-22T09:37:56;52106.78;;;-140.72;0.00
38197;BME280;26543;51.976;4.616;2023-06-22T09:40:21;52070.28;;;-140.72;0.00
38197;BME280;26543;51.976;4.616;2023-06-22T09:42:46;52110.84;;;-140.72;0.00
38197;BME280;26543;51.976;4.616;2023-06-22T09:45:11;52088.53;;;-140.72;0.00
38197;BME280;26543;51.976;4.616;2023-06-22T09:47:37;52129.13;;;-140.72;0.00
38197;BME280;26543;51.976;4.616;2023-06-22T09:50:02;52078.38;;;-140.72;0.00
38197;BME280;26543;51.976;4.616;2023-06-22T09:52:27;52096.66;;;-140.72;0.00
38197;BME280;26543;51.976;4.616;2023-06-22T09:54:53;52102.75;;;-140.72;0.00
38197;BME280;26543;51.976;4.616;2023-06-22T09:57:18;52118.97;;;-140.72;0.00
38197;BME280;26543;51.976;4.616;2023-06-22T09:59:43;52090.56;;;-140.72;0.00
38197;BME280;26543;51.976;4.616;2023-06-22T10:02:08;52139.25;;;-140.72;0.00
38197;BME280;26543;51.976;4.616;2023-06-22T10:04:34;52116.94;;;-140.72;0.00
38197;BME280;26543;51.976;4.616;2023-06-22T10:06:59;52082.44;;;-140.72;0.00
38197;BME280;26543;51.976;4.616;2023-06-22T10:09:25;52098.69;;;-140.72;0.00
38197;BME280;26543;51.976;4.616;2023-06-22T10:11:50;52092.59;;;-140.72;0.00
38197;BME280;26543;51.976;4.616;2023-06-22T10:14:15;52084.47;;;-140.72;0.00
38197;BME280;26543;51.976;4.616;2023-06-22T10:16:41;52155.50;;;-140.72;0.00
38197;BME280;26543;51.976;4.616;2023-06-22T10:19:06;52143.31;;;-140.72;0.00
38197;BME280;26543;51.976;4.616;2023-06-22T10:21:32;52147.38;;;-140.72;0.00
38197;BME280;26543;51.976;4.616;2023-06-22T10:23:57;52153.47;;;-140.72;0.00
38197;BME280;26543;51.976;4.616;2023-06-22T10:26:24;52159.56;;;-140.72;0.00
38197;BME280;26543;51.976;4.616;2023-06-22T10:28:49;52171.72;;;-140.72;0.00
38197;BME280;26543;51.976;4.616;2023-06-22T10:31:14;52189.97;;;-140.72;0.00
38197;BME280;26543;51.976;4.616;2023-06-22T10:33:41;52208.25;;;-140.72;0.00
38197;BME280;26543;51.976;4.616;2023-06-22T10:36:08;52185.94;;;-140.72;0.00
38197;BME280;26543;51.976;4.616;2023-06-22T10:38:34;52155.50;;;-140.72;0.00
38197;BME280;26543;51.976;4.616;2023-06-22T10:40:59;52198.09;;;-140.72;0.00
38197;BME280;26543;51.976;4.616;2023-06-22T10:43:24;52216.34;;;-140.72;0.00
38197;BME280;26543;51.976;4.616;2023-06-22T10:45:49;52206.22;;;-140.72;0.00
38197;BME280;26543;51.976;4.616;2023-06-22T10:48:14;52212.31;;;-140.72;0.00
38197;BME280;26543;51.976;4.616;2023-06-22T10:50:40;52187.97;;;-140.72;0.00
38197;BME280;26543;51.976;4.616;2023-06-22T10:53:05;52212.31;;;-140.72;0.00
38197;BME280;26543;51.976;4.616;2023-06-22T10:55:30;52187.97;;;-140.72;0.00
38197;BME280;26543;51.976;4.616;2023-06-22T10:57:55;52149.41;;;-140.72;0.00
38197;BME280;26543;51.976;4.616;2023-06-22T11:00:21;52198.09;;;-140.72;0.00
38197;BME280;26543;51.976;4.616;2023-06-22T11:02:46;52196.06;;;-140.72;8.39
38197;BME280;26543;51.976;4.616;2023-06-22T11:05:11;52187.97;;;-140.72;21.02
38197;BME280;26543;51.976;4.616;2023-06-22T11:07:37;52167.66;;;-140.72;14.94
38197;BME280;26543;51.976;4.616;2023-06-22T11:10:03;52252.88;;;-140.72;25.08
38197;BME280;26543;51.976;4.616;2023-06-22T11:12:28;52187.97;;;-140.72;21.56
38197;BME280;26543;51.976;4.616;2023-06-22T11:14:54;52196.06;;;-140.72;16.31
38197;BME280;26543;51.976;4.616;2023-06-22T11:17:19;52198.09;;;-140.72;11.59
38197;BME280;26543;51.976;4.616;2023-06-22T11:19:44;52187.97;;;-140.72;7.98
38197;BME280;26543;51.976;4.616;2023-06-22T11:22:09;52206.22;;;-140.72;27.79
38197;BME280;26543;51.976;4.616;2023-06-22T11:24:35;52198.09;;;-140.72;17.96
38197;BME280;26543;51.976;4.616;2023-06-22T11:27:00;52238.69;;;-140.72;17.91
38197;BME280;26543;51.976;4.616;2023-06-22T11:29:25;52192.00;;;-140.72;38.14
38197;BME280;26543;51.976;4.616;2023-06-22T11:31:50;52200.13;;;-140.72;100.00
38197;BME280;26543;51.976;4.616;2023-06-22T11:34:16;52200.13;;;-140.72;100.00
38197;BME280;26543;51.976;4.616;2023-06-22T11:36:41;52208.25;;;-140.72;100.00
38197;BME280;26543;51.976;4.616;2023-06-22T11:39:07;52230.56;;;-140.72;100.00
38197;BME280;26543;51.976;4.616;2023-06-22T11:41:34;52218.38;;;-140.72;100.00
38197;BME280;26543;51.976;4.616;2023-06-22T11:43:59;52226.50;;;-140.72;100.00
38197;BME280;26543;51.976;4.616;2023-06-22T11:46:25;52248.81;;;-140.72;100.00
38197;BME280;26543;51.976;4.616;2023-06-22T11:48:50;52256.94;;;-140.72;100.00
38197;BME280;26543;51.976;4.616;2023-06-22T11:51:15;52240.72;;;-140.72;100.00
38197;BME280;26543;51.976;4.616;2023-06-22T11:53:40;52261.00;;;-140.72;100.00
38197;BME280;26543;51.976;4.616;2023-06-22T11:56:05;52242.75;;;-140.72;100.00
38197;BME280;26543;51.976;4.616;2023-06-22T11:58:31;52232.59;;;-140.72;100.00
38197;BME280;26543;51.976;4.616;2023-06-22T12:00:56;52236.66;;;-140.72;100.00
38197;BME280;26543;51.976;4.616;2023-06-22T12:03:21;52281.28;;;-140.72;100.00
38197;BME280;26543;51.976;4.616;2023-06-22T12:05:46;52263.03;;;-140.72;100.00
38197;BME280;26543;51.976;4.616;2023-06-22T12:08:12;52242.75;;;-140.72;100.00
38197;BME280;26543;51.976;4.616;2023-06-22T12:10:38;52265.06;;;-140.72;100.00
38197;BME280;26543;51.976;4.616;2023-06-22T12:13:03;52244.78;;;-140.72;100.00
38197;BME280;26543;51.976;4.616;2023-06-22T12:15:28;52228.53;;;-140.72;100.00
38197;BME280;26543;51.976;4.616;2023-06-22T12:17:54;52240.72;;;-140.72;100.00
38197;BME280;26543;51.976;4.616;2023-06-22T12:20:19;52279.25;;;-140.72;100.00
38197;BME280;26543;51.976;4.616;2023-06-22T12:22:44;52275.19;;;-140.72;100.00
38197;BME280;26543;51.976;4.616;2023-06-22T12:25:09;52299.56;;;-140.72;100.00
38197;BME280;26543;51.976;4.616;2023-06-22T12:27:35;52256.94;;;-140.72;100.00
38197;BME280;26543;51.976;4.616;2023-06-22T12:30:00;52263.03;;;-140.72;100.00
38197;BME280;26543;51.976;4.616;2023-06-22T12:32:25;52256.94;;;-140.72;100.00
38197;BME280;26543;51.976;4.616;2023-06-22T12:34:51;52297.53;;;-140.72;100.00
38197;BME280;26543;51.976;4.616;2023-06-22T12:37:16;52287.38;;;-140.72;100.00
38197;BME280;26543;51.976;4.616;2023-06-22T12:39:41;52285.34;;;-140.72;100.00